メインページ
METAR-TAF:

METAR-TAF

空港 :

スーセントマリー, オンタリオ州, カナダ

緯度: 46-29N, 経度: 084-30W, 海抜: 187m

現時点の気象観測

当レポートは1時間18分前の08:00(UTC)に作成
の風 5kt
気温 -2°C
湿度 93%
気圧 1012 hPa
視程: 32.2km
高度17000ftの雲はほとんどない

METAR: CYAM 230800Z 18005KT 20SM FEW170 M02/M03 A2987 RMK AS2 FROIN SLP124

時間: 05:18 (09:18 UTC)

予報

当レポートは1時間40分前の07:38(UTC)に作成
予報は23日の 08時(UTC)から 23日の 20時(UTC)まで有効
変向風 3kt
視程: 10km
高度21000ftの雲はほとんどない
23日の 0900時(UTC)から
の風 5kt
視程: 10km
高度8000ftの雲は散在している
23日の 09時(UTC)から 23日の 13時(UTC)まで一時的に
視程: 9.7km
23日の 1300時(UTC)から
変向風 3kt
視程: 10km
高度7000ftの雲はほとんどない
23日の 13時(UTC)から 23日の 15時(UTC)まで徐々に
西/北西の風 8kt
23日の 1800時(UTC)から
北西の風 9kt
視程: 10km
高度8000ftの千切れ雲あり

TAF: CYAM 230738Z 2308/2320 VRB03KT P6SM FEW210 FM230900 10005KT P6SM SCT080 TEMPO 2309/2313 6SM BR FM231300 VRB03KT P6SM FEW070 BECMG 2313/2315 29008KT FM231800 31009KT P6SM BKN080 RMK NXT FCST BY 231400Z

4,000以上の空港の気象観測と天気予報(METAR報とTAF報)

利用可能な観測所は地図上に黄色い丸と赤い丸で示す。

丸の上にカーソルを重ねると観測所名を参照できる。

次にクリックすると気象観測と天気予報を参照できる。

マップの切り替え:黒色「×」印の緑ボタンをクリックして拡大、「-」印の緑ボタンをクリックして縮小、緑色の三角印をクリックして隣りの地図に切り替え


METAR-TAF: